createdAt,value
2023-04-12T05:18:48.447Z,87.79
2023-04-12T05:19:52.185Z,88.13
2023-04-12T05:20:55.038Z,87.82
2023-04-12T05:21:58.310Z,87.84
2023-04-12T05:23:01.275Z,87.86
2023-04-12T05:24:04.299Z,88.35
2023-04-12T05:25:08.942Z,87.89
2023-04-12T05:26:16.197Z,87.76
2023-04-12T05:27:22.399Z,87.75
2023-04-12T05:28:25.831Z,87.96
2023-04-12T05:29:29.334Z,87.96
2023-04-12T05:30:32.656Z,88.11
2023-04-12T05:31:36.604Z,88.14
2023-04-12T05:32:41.614Z,88.17
2023-04-12T05:33:45.216Z,88.23
2023-04-12T05:34:49.122Z,88.12
2023-04-12T05:35:52.753Z,88.11
2023-04-12T05:36:55.732Z,88.03
2023-04-12T05:37:59.174Z,88.00
2023-04-12T05:39:02.114Z,87.96
2023-04-12T05:40:09.917Z,87.89
2023-04-12T05:41:13.325Z,87.90
2023-04-12T05:42:16.656Z,87.90
2023-04-12T05:43:20.037Z,87.84
2023-04-12T05:44:23.039Z,87.87
2023-04-12T05:45:26.328Z,87.86
2023-04-12T05:46:29.400Z,87.94
2023-04-12T05:47:32.398Z,87.96
2023-04-12T05:48:35.322Z,87.96
2023-04-12T05:49:38.422Z,88.05
2023-04-12T05:50:51.652Z,88.09
2023-04-12T05:51:54.593Z,88.15
2023-04-12T05:53:00.533Z,88.24
2023-04-12T05:54:08.278Z,88.01
2023-04-12T05:55:12.185Z,88.02
2023-04-12T05:56:17.558Z,88.30
2023-04-12T05:57:21.039Z,88.39
2023-04-12T05:58:24.783Z,88.32
2023-04-12T05:59:29.655Z,88.49
2023-04-12T06:00:33.252Z,88.45
2023-04-12T06:01:36.347Z,88.48
2023-04-12T06:02:40.269Z,88.72
2023-04-12T06:03:43.737Z,88.45
2023-04-12T06:04:51.132Z,88.60
2023-04-12T06:05:56.066Z,88.58
2023-04-12T06:07:00.671Z,88.35
2023-04-12T06:08:05.421Z,88.54
2023-04-12T06:09:10.020Z,88.60
2023-04-12T06:10:14.907Z,88.46
2023-04-12T06:11:17.954Z,88.46
2023-04-12T06:12:20.884Z,88.55
2023-04-12T06:13:24.134Z,88.56
2023-04-12T06:14:27.106Z,88.43
2023-04-12T06:15:32.099Z,88.50
2023-04-12T06:16:35.074Z,88.27
2023-04-12T06:17:38.977Z,88.25
2023-04-12T06:18:42.154Z,88.38
2023-04-12T06:19:45.303Z,88.34
2023-04-12T06:20:48.252Z,88.24
2023-04-12T06:21:51.690Z,87.94
2023-04-12T06:22:56.014Z,87.94
2023-04-12T06:23:59.028Z,87.56
2023-04-12T06:25:01.985Z,87.64
2023-04-12T06:26:05.764Z,87.86
2023-04-12T06:27:09.246Z,87.78
2023-04-12T06:28:12.122Z,87.59
2023-04-12T06:29:20.832Z,87.24
2023-04-12T06:30:23.736Z,87.51
2023-04-12T06:31:29.810Z,87.63
2023-04-12T06:32:32.955Z,87.75
2023-04-12T06:33:37.025Z,87.76
2023-04-12T06:34:44.199Z,87.71
2023-04-12T06:35:50.649Z,87.47
2023-04-12T06:36:53.581Z,87.62
2023-04-12T06:37:56.419Z,87.19
2023-04-12T06:38:59.449Z,87.22
2023-04-12T06:40:02.423Z,87.54
2023-04-12T06:41:05.997Z,87.21
2023-04-12T06:42:08.813Z,87.15
2023-04-12T06:43:19.156Z,87.24
2023-04-12T06:44:22.021Z,87.12
2023-04-12T06:45:24.884Z,87.02
2023-04-12T06:46:28.906Z,87.18
2023-04-12T06:47:32.713Z,87.46
2023-04-12T06:48:35.699Z,87.61
2023-04-12T06:49:39.214Z,87.46
2023-04-12T06:50:41.987Z,86.96
2023-04-12T06:51:44.995Z,86.71
2023-04-12T06:52:48.831Z,86.72
2023-04-12T06:53:51.660Z,86.60
2023-04-12T06:54:57.036Z,87.11
2023-04-12T06:56:04.117Z,86.99
2023-04-12T06:57:13.285Z,87.01
2023-04-12T06:58:16.173Z,86.84
2023-04-12T06:59:18.984Z,87.09
2023-04-12T07:00:22.502Z,86.86
2023-04-12T07:01:25.590Z,86.97
2023-04-12T07:02:28.581Z,86.87
2023-04-12T07:03:33.438Z,86.59
2023-04-12T07:04:36.671Z,86.89
2023-04-12T07:05:39.947Z,86.71
2023-04-12T07:06:42.937Z,86.27
2023-04-12T07:07:45.907Z,86.68
2023-04-12T07:08:49.618Z,86.74
2023-04-12T07:09:53.154Z,86.51
2023-04-12T07:10:56.161Z,86.19
2023-04-12T07:12:01.150Z,86.57
2023-04-12T07:13:07.204Z,86.55
2023-04-12T07:14:09.977Z,86.24
2023-04-12T07:15:12.762Z,86.66
2023-04-12T07:16:15.739Z,86.29
2023-04-12T07:17:19.099Z,85.76
2023-04-12T07:18:22.140Z,86.12
2023-04-12T07:19:25.063Z,86.25
2023-04-12T07:20:27.887Z,86.48
2023-04-12T07:21:30.778Z,86.35
2023-04-12T07:22:33.820Z,86.44
2023-04-12T07:23:36.799Z,86.35
2023-04-12T07:24:39.796Z,85.92
2023-04-12T07:25:42.666Z,86.15
2023-04-12T07:26:45.538Z,86.10
2023-04-12T07:27:49.903Z,86.18
2023-04-12T07:28:54.916Z,86.10
2023-04-12T07:29:58.861Z,86.18
2023-04-12T07:31:04.759Z,86.23
2023-04-12T07:32:10.894Z,86.11
2023-04-12T07:33:19.702Z,86.21
2023-04-12T07:34:24.331Z,86.08
2023-04-12T07:35:27.417Z,85.92
2023-04-12T07:36:31.357Z,85.57
2023-04-12T07:37:34.228Z,85.97
2023-04-12T07:38:37.048Z,85.59
2023-04-12T07:39:41.016Z,85.65
2023-04-12T07:40:44.030Z,85.42
2023-04-12T07:41:48.400Z,85.43
2023-04-12T07:42:51.225Z,85.71
2023-04-12T07:43:54.084Z,85.41
2023-04-12T07:44:56.973Z,85.70
2023-04-12T07:45:59.898Z,85.39
2023-04-12T07:47:02.746Z,85.47
2023-04-12T07:48:06.819Z,85.51
2023-04-12T07:49:10.734Z,85.62
2023-04-12T07:50:13.974Z,85.35
2023-04-12T07:51:16.789Z,85.39
2023-04-12T07:52:19.593Z,85.45
2023-04-12T07:53:26.248Z,85.39
2023-04-12T07:54:29.272Z,85.25
2023-04-12T07:55:32.060Z,85.32
2023-04-12T07:56:36.173Z,85.14
2023-04-12T07:57:38.990Z,84.97
2023-04-12T07:58:41.825Z,84.97
2023-04-12T07:59:44.725Z,84.92
2023-04-12T08:00:48.445Z,84.87
2023-04-12T08:01:52.592Z,84.42
2023-04-12T08:02:57.071Z,84.15
2023-04-12T08:04:00.558Z,84.31
2023-04-12T08:05:04.773Z,84.37
2023-04-12T08:06:08.624Z,84.74
2023-04-12T08:07:11.706Z,85.09
2023-04-12T08:08:14.597Z,85.10
2023-04-12T08:09:17.391Z,84.75
2023-04-12T08:10:20.399Z,84.42
2023-04-12T08:11:23.300Z,84.34
2023-04-12T08:12:26.231Z,84.41
2023-04-12T08:13:29.026Z,84.70
2023-04-12T08:14:31.869Z,84.63
2023-04-12T08:15:34.914Z,84.68
2023-04-12T08:16:37.863Z,84.48
2023-04-12T08:17:43.919Z,84.53
2023-04-12T08:18:46.926Z,84.60
2023-04-12T08:19:49.963Z,84.28
2023-04-12T08:20:53.311Z,84.26
2023-04-12T08:21:56.830Z,84.23
2023-04-12T08:22:59.913Z,84.15
2023-04-12T08:24:03.084Z,83.51
2023-04-12T08:25:06.819Z,84.07
2023-04-12T08:26:09.980Z,83.92
2023-04-12T08:27:13.956Z,84.22
2023-04-12T08:28:17.026Z,83.93
2023-04-12T08:29:19.925Z,83.56
2023-04-12T08:30:27.031Z,83.56
2023-04-12T08:31:30.389Z,83.17
2023-04-12T08:32:50.857Z,83.38
2023-04-12T08:33:53.910Z,83.25
2023-04-12T08:34:56.879Z,83.10
2023-04-12T08:36:00.256Z,82.82
2023-04-12T08:37:03.336Z,82.85
2023-04-12T08:38:07.968Z,82.98
2023-04-12T08:39:11.224Z,82.59
2023-04-12T08:40:14.485Z,82.07
2023-04-12T08:41:18.383Z,82.78
2023-04-12T08:42:22.230Z,81.09
2023-04-12T08:43:29.142Z,81.34
2023-04-12T08:44:37.033Z,80.82
2023-04-12T08:45:40.004Z,80.28
2023-04-12T08:46:44.169Z,80.31
2023-04-12T08:47:47.166Z,80.91
2023-04-12T08:48:54.231Z,81.35
2023-04-12T08:49:57.395Z,81.97
2023-04-12T08:51:00.600Z,81.90
2023-04-12T08:52:08.384Z,81.80
2023-04-12T08:53:11.860Z,82.12
2023-04-12T08:54:16.009Z,82.34
2023-04-12T08:55:18.926Z,82.06
2023-04-12T08:56:23.511Z,82.25
2023-04-12T08:57:27.071Z,82.52
2023-04-12T08:58:31.308Z,81.92
2023-04-12T08:59:39.263Z,82.05
2023-04-12T09:00:42.954Z,81.50
2023-04-12T09:01:46.174Z,80.68
2023-04-12T09:02:49.708Z,80.91
2023-04-12T09:03:52.861Z,81.08
2023-04-12T09:04:56.165Z,80.29
2023-04-12T09:06:03.344Z,81.34
2023-04-12T09:07:07.039Z,81.12
2023-04-12T09:08:10.271Z,81.18
2023-04-12T09:09:13.171Z,80.98
2023-04-12T09:10:35.220Z,80.62
2023-04-12T09:11:38.947Z,82.05
2023-04-12T09:12:47.906Z,81.53
2023-04-12T09:13:51.383Z,81.88
2023-04-12T09:15:12.839Z,81.44
2023-04-12T09:16:17.227Z,81.32
2023-04-12T09:17:27.903Z,80.85
2023-04-12T09:18:30.990Z,81.29
2023-04-12T09:19:36.071Z,81.34
2023-04-12T09:20:39.324Z,81.22
2023-04-12T09:21:57.778Z,81.30
2023-04-12T09:23:02.790Z,82.12
2023-04-12T09:24:14.852Z,81.24
2023-04-12T09:25:18.524Z,81.26
2023-04-12T09:26:31.632Z,81.67
2023-04-12T09:27:52.558Z,81.53
2023-04-12T09:28:55.440Z,81.31
2023-04-12T09:30:10.760Z,81.12
2023-04-12T09:31:19.370Z,81.05
2023-04-12T09:32:27.505Z,80.07
2023-04-12T09:33:48.531Z,79.89
2023-04-12T09:35:00.564Z,80.21
2023-04-12T09:36:13.536Z,81.03
2023-04-12T09:37:17.195Z,81.19
2023-04-12T09:38:20.582Z,81.00
2023-04-12T09:39:42.210Z,81.25
2023-04-12T09:40:45.199Z,82.28
2023-04-12T09:41:48.221Z,81.03
2023-04-12T09:42:56.261Z,80.90
2023-04-12T09:44:00.503Z,80.69
2023-04-12T09:45:24.398Z,80.44
2023-04-12T09:46:27.868Z,79.87
2023-04-12T09:47:39.638Z,79.66
2023-04-12T09:48:50.284Z,79.70
2023-04-12T09:49:53.252Z,79.31
2023-04-12T09:51:00.293Z,79.43
2023-04-12T09:52:03.658Z,79.54
2023-04-12T09:53:17.280Z,80.33
2023-04-12T09:54:20.962Z,80.62
2023-04-12T09:55:25.834Z,81.00
2023-04-12T09:56:32.375Z,82.37
2023-04-12T09:57:39.857Z,82.29
2023-04-12T09:58:44.681Z,81.85
2023-04-12T09:59:51.551Z,81.75
2023-04-12T10:00:57.011Z,81.22
2023-04-12T10:02:00.701Z,80.86
2023-04-12T10:03:05.231Z,80.17
2023-04-12T10:04:09.981Z,80.20
2023-04-12T10:05:16.173Z,80.62
2023-04-12T10:06:20.572Z,80.49
2023-04-12T10:07:23.739Z,80.78
2023-04-12T10:08:27.170Z,81.57
2023-04-12T10:09:30.211Z,81.22
2023-04-12T10:10:33.509Z,80.91
2023-04-12T10:11:40.606Z,80.24
2023-04-12T10:12:46.535Z,79.40
2023-04-12T10:13:52.288Z,79.28
2023-04-12T10:14:55.474Z,79.51
2023-04-12T10:16:01.084Z,79.54
2023-04-12T10:17:05.698Z,79.98
2023-04-12T10:18:11.391Z,80.74
2023-04-12T10:19:15.076Z,80.30
2023-04-12T10:20:19.593Z,81.25
2023-04-12T10:21:23.594Z,80.16
2023-04-12T10:22:27.165Z,80.04
2023-04-12T10:23:33.002Z,80.33
2023-04-12T10:24:38.648Z,79.85
2023-04-12T10:25:45.036Z,80.97
2023-04-12T10:26:50.503Z,80.02
2023-04-12T10:27:53.804Z,79.35
2023-04-12T10:29:24.512Z,79.07
2023-04-12T10:30:30.091Z,78.57
2023-04-12T10:31:34.352Z,78.47
2023-04-12T10:32:37.736Z,77.69
2023-04-12T10:33:42.938Z,78.65
2023-04-12T10:34:51.067Z,78.47
2023-04-12T10:36:06.925Z,78.45
2023-04-12T10:37:10.244Z,78.85
2023-04-12T10:38:13.169Z,78.36
2023-04-12T10:39:16.413Z,78.67
2023-04-12T10:40:19.661Z,78.30
2023-04-12T10:41:22.889Z,79.01
2023-04-12T10:42:29.784Z,79.16
2023-04-12T10:43:36.332Z,78.76
2023-04-12T10:44:39.860Z,77.91
2023-04-12T10:45:43.178Z,77.50
2023-04-12T10:46:46.463Z,78.55
2023-04-12T10:47:49.520Z,78.25
2023-04-12T10:48:53.884Z,78.01
2023-04-12T10:50:30.225Z,77.87
2023-04-12T10:51:37.791Z,77.34
2023-04-12T10:53:09.190Z,77.13
2023-04-12T10:54:12.472Z,77.93
2023-04-12T10:55:28.227Z,77.08
2023-04-12T10:56:34.044Z,77.54
2023-04-12T10:57:43.692Z,77.14
2023-04-12T10:58:49.797Z,76.65
2023-04-12T10:59:59.593Z,76.74
2023-04-12T11:01:11.959Z,78.09
2023-04-12T11:02:16.731Z,77.68
2023-04-12T11:03:28.980Z,77.09
2023-04-12T11:04:32.407Z,78.03
2023-04-12T11:06:12.787Z,77.45
2023-04-12T11:07:43.911Z,77.09
2023-04-12T11:10:20.029Z,76.51
2023-04-12T11:11:27.392Z,76.54
2023-04-12T11:12:31.042Z,76.54
2023-04-12T11:13:38.782Z,76.92
2023-04-12T11:14:46.746Z,79.02
2023-04-12T11:15:56.518Z,77.44
2023-04-12T11:17:06.135Z,76.62
2023-04-12T11:18:09.486Z,76.29
2023-04-12T11:19:13.166Z,76.04
2023-04-12T11:20:16.474Z,75.87
2023-04-12T11:21:20.053Z,76.74
2023-04-12T11:22:26.118Z,75.92
2023-04-12T11:23:29.584Z,77.53
2023-04-12T11:24:33.706Z,76.19
2023-04-12T11:25:37.468Z,75.85
2023-04-12T11:26:41.050Z,76.18
2023-04-12T11:27:54.912Z,75.71
2023-04-12T11:28:59.456Z,76.09
2023-04-12T11:30:03.014Z,76.35
2023-04-12T11:31:07.555Z,75.02
2023-04-12T11:32:14.159Z,75.27
2023-04-12T11:33:32.321Z,75.23
2023-04-12T11:34:36.800Z,77.06
2023-04-12T11:35:43.780Z,76.62
2023-04-12T11:36:48.171Z,75.72
2023-04-12T11:37:51.354Z,75.68
2023-04-12T11:38:57.155Z,75.73
2023-04-12T11:40:00.553Z,75.80
2023-04-12T11:41:07.112Z,76.17
2023-04-12T11:42:15.907Z,75.76
2023-04-12T11:43:20.675Z,75.60
2023-04-12T11:44:24.408Z,76.08
2023-04-12T11:45:29.455Z,76.10
2023-04-12T11:46:35.971Z,75.92
2023-04-12T11:47:43.712Z,75.56
2023-04-12T11:48:47.253Z,75.95
2023-04-12T11:49:53.285Z,75.94
2023-04-12T11:51:10.324Z,76.15
2023-04-12T11:52:16.107Z,76.39
2023-04-12T11:53:19.743Z,76.69
2023-04-12T11:54:29.787Z,76.54
2023-04-12T11:55:32.851Z,77.63
2023-04-12T11:56:37.665Z,77.71
2023-04-12T11:57:40.898Z,76.77
2023-04-12T11:58:47.913Z,76.94
2023-04-12T11:59:51.217Z,76.44
2023-04-12T12:00:57.468Z,76.50
2023-04-12T12:02:13.836Z,76.27
2023-04-12T12:03:25.588Z,76.18
2023-04-12T12:04:30.576Z,76.59
2023-04-12T12:05:37.463Z,76.85
2023-04-12T12:06:41.445Z,76.64
2023-04-12T12:07:44.676Z,76.86
2023-04-12T12:08:51.684Z,76.56
2023-04-12T12:09:55.487Z,76.12
2023-04-12T12:11:07.313Z,76.12
2023-04-12T12:12:12.812Z,76.70
2023-04-12T12:13:16.077Z,76.81
2023-04-12T12:14:23.566Z,76.46
2023-04-12T12:15:32.945Z,76.80
2023-04-12T12:16:36.431Z,76.82
2023-04-12T12:17:40.150Z,76.40
2023-04-12T12:18:44.727Z,76.74
2023-04-12T12:19:48.516Z,76.46
2023-04-12T12:20:51.660Z,77.08
2023-04-12T12:21:55.187Z,76.74
2023-04-12T12:22:58.356Z,76.50
2023-04-12T12:24:02.373Z,76.29
2023-04-12T12:25:06.887Z,77.16
2023-04-12T12:26:18.877Z,76.21
2023-04-12T12:27:24.808Z,77.22
2023-04-12T12:28:27.807Z,77.37
2023-04-12T12:29:38.352Z,76.70
2023-04-12T12:30:41.458Z,77.66
2023-04-12T12:31:50.511Z,79.53
2023-04-12T12:32:53.628Z,77.56
2023-04-12T12:33:58.544Z,76.82
2023-04-12T12:35:02.048Z,77.04
2023-04-12T12:36:06.801Z,76.98
2023-04-12T12:37:13.680Z,77.05
2023-04-12T12:38:16.578Z,77.41
2023-04-12T12:39:19.841Z,77.56
2023-04-12T12:40:32.511Z,77.41
2023-04-12T12:41:36.599Z,78.22
2023-04-12T12:42:54.783Z,78.25
2023-04-12T12:43:58.320Z,79.15
2023-04-12T12:45:04.682Z,78.53
2023-04-12T12:46:07.906Z,79.35
2023-04-12T12:47:14.332Z,80.02
2023-04-12T12:48:21.100Z,79.70
2023-04-12T12:49:24.327Z,80.31
2023-04-12T12:50:29.539Z,80.37
2023-04-12T12:51:33.301Z,78.78
2023-04-12T12:52:36.454Z,80.84
2023-04-12T12:53:40.970Z,79.86
2023-04-12T12:54:44.033Z,77.71
2023-04-12T12:55:47.392Z,77.13
2023-04-12T12:56:50.478Z,75.46
2023-04-12T12:58:07.265Z,73.10
2023-04-12T12:59:11.793Z,76.75
2023-04-12T13:00:16.407Z,74.26
2023-04-12T13:01:19.518Z,76.75
2023-04-12T13:02:22.814Z,74.29
2023-04-12T13:03:26.120Z,76.80
2023-04-12T13:04:29.952Z,76.58
2023-04-12T13:05:33.190Z,72.93
2023-04-12T13:06:36.206Z,76.38
2023-04-12T13:07:39.498Z,75.39
2023-04-12T13:08:42.879Z,71.39
2023-04-12T13:09:46.610Z,71.89
2023-04-12T13:10:50.702Z,70.50
2023-04-12T13:11:53.845Z,69.30
2023-04-12T13:12:56.827Z,66.85
2023-04-12T13:13:59.886Z,67.92
2023-04-12T13:15:20.127Z,68.82
2023-04-12T13:16:26.994Z,73.37
2023-04-12T13:17:31.613Z,69.75
2023-04-12T13:18:34.577Z,69.46
2023-04-12T13:19:38.036Z,70.30
2023-04-12T13:20:41.469Z,70.04
2023-04-12T13:21:44.579Z,71.85
2023-04-12T13:22:48.203Z,68.04
2023-04-12T13:23:51.196Z,67.15
2023-04-12T13:24:55.406Z,67.48
2023-04-12T13:25:58.318Z,67.25
2023-04-12T13:27:01.215Z,67.07
2023-04-12T13:28:04.763Z,65.75
2023-04-12T13:29:07.729Z,68.30
2023-04-12T13:30:11.663Z,66.47
2023-04-12T13:31:14.588Z,69.79
2023-04-12T13:32:18.709Z,67.56
2023-04-12T13:33:22.334Z,67.59
2023-04-12T13:34:25.995Z,68.59
2023-04-12T13:35:29.002Z,62.19
2023-04-12T13:36:32.222Z,61.27
2023-04-12T13:37:35.140Z,62.68
2023-04-12T13:38:38.494Z,67.19
2023-04-12T13:39:41.607Z,70.79
2023-04-12T13:40:44.605Z,69.72
2023-04-12T13:41:47.684Z,66.75
2023-04-12T13:42:50.696Z,62.64
2023-04-12T13:43:53.838Z,60.16
2023-04-12T13:44:57.058Z,58.01
2023-04-12T13:46:00.400Z,61.59
2023-04-12T13:47:04.704Z,57.70
2023-04-12T13:48:07.811Z,62.09
2023-04-12T13:49:11.668Z,62.84
2023-04-12T13:50:14.647Z,58.03
2023-04-12T13:51:18.156Z,62.64
2023-04-12T13:52:21.517Z,60.97
2023-04-12T13:53:24.544Z,63.84
2023-04-12T13:54:27.778Z,65.19
2023-04-12T13:55:30.888Z,63.93
2023-04-12T13:56:33.940Z,60.12
2023-04-12T13:57:37.006Z,59.25
2023-04-12T13:58:40.133Z,59.55
2023-04-12T13:59:43.279Z,60.63
2023-04-12T14:00:46.252Z,64.93
2023-04-12T14:01:49.922Z,64.23
2023-04-12T14:02:54.128Z,61.44
2023-04-12T14:03:57.205Z,57.69
2023-04-12T14:05:00.838Z,57.19
2023-04-12T14:06:03.904Z,53.87
2023-04-12T14:07:06.955Z,57.19
2023-04-12T14:08:09.867Z,53.78
2023-04-12T14:09:30.551Z,55.63
2023-04-12T14:10:33.630Z,57.98
2023-04-12T14:11:47.369Z,56.48
2023-04-12T14:12:50.452Z,58.47
2023-04-12T14:13:54.681Z,58.42
2023-04-12T14:14:57.974Z,57.49
2023-04-12T14:16:01.012Z,59.98
2023-04-12T14:17:04.096Z,60.16
2023-04-12T14:18:07.472Z,59.61
2023-04-12T14:19:10.838Z,58.99
2023-04-12T14:20:14.566Z,59.90
2023-04-12T14:21:18.770Z,58.68
2023-04-12T14:22:21.677Z,59.60
2023-04-12T14:23:26.224Z,62.28
2023-04-12T14:24:29.231Z,62.42
2023-04-12T14:25:32.333Z,63.12
2023-04-12T14:26:35.763Z,62.67
2023-04-12T14:27:38.881Z,62.68
2023-04-12T14:28:42.160Z,63.05
2023-04-12T14:29:45.360Z,64.44
2023-04-12T14:30:51.049Z,61.96
2023-04-12T14:31:54.646Z,63.35
2023-04-12T14:32:57.699Z,63.27
2023-04-12T14:34:01.187Z,62.66
2023-04-12T14:35:05.402Z,66.88
2023-04-12T14:36:09.034Z,68.04
2023-04-12T14:37:12.500Z,64.47
2023-04-12T14:38:15.385Z,65.10
2023-04-12T14:39:18.467Z,62.87
2023-04-12T14:40:21.612Z,66.09
2023-04-12T14:41:24.633Z,66.48
2023-04-12T14:42:27.685Z,60.05
2023-04-12T14:43:30.753Z,63.87
2023-04-12T14:44:33.837Z,65.14
2023-04-12T14:45:37.761Z,62.21
2023-04-12T14:46:40.770Z,64.29
2023-04-12T14:47:43.949Z,61.61
2023-04-12T14:48:47.198Z,61.78
2023-04-12T14:49:50.391Z,62.90
2023-04-12T14:50:55.631Z,62.02
2023-04-12T14:51:59.625Z,60.42
2023-04-12T14:53:02.884Z,58.29
2023-04-12T14:54:05.810Z,59.32
2023-04-12T14:55:10.686Z,58.28
2023-04-12T14:56:22.332Z,57.51
2023-04-12T14:57:27.314Z,57.65
2023-04-12T14:58:30.771Z,57.31
2023-04-12T14:59:34.107Z,57.63
2023-04-12T15:00:38.043Z,58.44
2023-04-12T15:01:41.787Z,58.92
2023-04-12T15:02:46.357Z,59.08
2023-04-12T15:03:51.935Z,59.52
2023-04-12T15:04:55.592Z,59.97
2023-04-12T15:05:59.218Z,60.79
2023-04-12T15:07:02.160Z,61.16
2023-04-12T15:08:05.146Z,61.21
2023-04-12T15:09:10.233Z,62.09
2023-04-12T15:10:16.086Z,62.58
2023-04-12T15:11:19.317Z,63.77
2023-04-12T15:12:22.196Z,63.26
2023-04-12T15:13:33.533Z,63.91
2023-04-12T15:14:38.281Z,63.65
2023-04-12T15:15:41.853Z,63.12
2023-04-12T15:16:46.473Z,63.18
2023-04-12T15:17:49.793Z,63.71
2023-04-12T15:18:52.848Z,63.79
2023-04-12T15:19:56.203Z,63.48
2023-04-12T15:21:00.323Z,62.98
2023-04-12T15:22:03.576Z,63.16
2023-04-12T15:23:06.711Z,63.93
2023-04-12T15:24:09.645Z,64.94
2023-04-12T15:25:12.614Z,63.64
2023-04-12T15:26:15.991Z,64.93
2023-04-12T15:27:19.178Z,64.18
2023-04-12T15:28:22.170Z,63.55
2023-04-12T15:29:28.205Z,64.56
2023-04-12T15:30:32.043Z,63.97
2023-04-12T15:31:35.035Z,64.00
2023-04-12T15:32:39.175Z,64.66
2023-04-12T15:33:44.408Z,64.16
2023-04-12T15:34:47.316Z,64.10
2023-04-12T15:35:50.524Z,64.33
2023-04-12T15:36:53.624Z,66.66
2023-04-12T15:37:56.636Z,65.08
2023-04-12T15:39:00.843Z,66.02
2023-04-12T15:40:13.681Z,65.13
2023-04-12T15:41:16.643Z,66.80
2023-04-12T15:42:20.781Z,66.61
2023-04-12T15:43:25.231Z,65.48
2023-04-12T15:44:32.054Z,66.44
2023-04-12T15:45:35.128Z,66.01
2023-04-12T15:46:39.366Z,65.57
2023-04-12T15:47:42.759Z,65.09
2023-04-12T15:48:45.969Z,65.94
2023-04-12T15:49:48.896Z,66.55
2023-04-12T15:50:54.678Z,67.61
2023-04-12T15:51:58.040Z,66.85
2023-04-12T15:53:01.463Z,68.17
2023-04-12T15:54:04.728Z,68.32
2023-04-12T15:55:11.675Z,67.19
2023-04-12T15:56:17.200Z,69.56
2023-04-12T15:57:20.846Z,68.74
2023-04-12T15:58:24.661Z,67.81
2023-04-12T15:59:29.458Z,68.12
2023-04-12T16:00:33.104Z,68.31
2023-04-12T16:01:36.762Z,68.77
2023-04-12T16:02:40.700Z,68.75
2023-04-12T16:03:47.312Z,68.38
2023-04-12T16:04:51.006Z,69.14
2023-04-12T16:05:54.551Z,69.07
2023-04-12T16:07:02.189Z,69.84
2023-04-12T16:08:05.235Z,69.35
2023-04-12T16:09:08.352Z,69.16
2023-04-12T16:10:11.664Z,69.44
2023-04-12T16:11:19.599Z,69.03
2023-04-12T16:12:22.542Z,69.91
2023-04-12T16:13:25.931Z,69.30
2023-04-12T16:14:29.200Z,70.07
2023-04-12T16:15:33.636Z,70.50
2023-04-12T16:16:40.584Z,70.54
2023-04-12T16:17:45.468Z,70.29
2023-04-12T16:18:49.577Z,70.55
2023-04-12T16:19:54.620Z,70.19
2023-04-12T16:20:58.526Z,70.56
2023-04-12T16:22:02.505Z,70.19
2023-04-12T16:23:06.870Z,70.17
2023-04-12T16:24:11.915Z,71.63
2023-04-12T16:25:20.152Z,71.34
2023-04-12T16:26:24.014Z,70.66
2023-04-12T16:27:29.878Z,70.16
2023-04-12T16:28:37.639Z,71.30
2023-04-12T16:29:41.896Z,71.86
2023-04-12T16:30:46.228Z,71.25
2023-04-12T16:31:51.862Z,71.70
2023-04-12T16:32:55.582Z,70.36
2023-04-12T16:33:58.990Z,70.64
2023-04-12T16:35:02.585Z,70.49
2023-04-12T16:36:06.041Z,71.33
2023-04-12T16:37:09.094Z,70.47
2023-04-12T16:38:14.761Z,70.64
2023-04-12T16:39:19.734Z,71.63
2023-04-12T16:40:24.765Z,71.81
2023-04-12T16:41:27.962Z,70.73
2023-04-12T16:42:31.938Z,70.52
2023-04-12T16:43:35.021Z,71.65
2023-04-12T16:44:38.613Z,71.88
2023-04-12T16:45:45.713Z,71.69
2023-04-12T16:46:49.057Z,72.04
2023-04-12T16:47:52.160Z,71.63
2023-04-12T16:48:55.230Z,71.19
2023-04-12T16:49:58.470Z,71.28
2023-04-12T16:51:03.810Z,71.82
2023-04-12T16:52:07.196Z,72.02
2023-04-12T16:53:11.759Z,72.16
2023-04-12T16:54:14.959Z,71.96
2023-04-12T16:55:17.810Z,72.16
2023-04-12T16:56:21.163Z,72.03
2023-04-12T16:57:24.435Z,71.86
2023-04-12T16:58:28.858Z,71.33
2023-04-12T16:59:33.260Z,71.75
2023-04-12T17:00:37.173Z,71.87
2023-04-12T17:01:40.737Z,71.92
2023-04-12T17:02:43.850Z,72.15
2023-04-12T17:03:47.684Z,71.94
2023-04-12T17:04:51.140Z,71.92
2023-04-12T17:05:54.562Z,71.75
2023-04-12T17:06:59.081Z,71.35
2023-04-12T17:08:05.645Z,71.57
2023-04-12T17:09:09.783Z,71.73
2023-04-12T17:10:13.128Z,71.60
2023-04-12T17:11:16.441Z,71.65
2023-04-12T17:12:19.837Z,71.91
2023-04-12T17:13:22.748Z,71.93
2023-04-12T17:14:29.684Z,71.87
2023-04-12T17:15:32.887Z,71.52
2023-04-12T17:16:36.226Z,71.33
2023-04-12T17:17:39.867Z,71.39
2023-04-12T17:18:43.650Z,71.59
2023-04-12T17:19:46.766Z,71.76
2023-04-12T17:20:49.918Z,71.67
2023-04-12T17:21:53.104Z,71.90
2023-04-12T17:22:57.618Z,72.10
2023-04-12T17:24:01.282Z,72.22
2023-04-12T17:25:06.931Z,72.03
2023-04-12T17:26:10.293Z,72.62
2023-04-12T17:27:13.192Z,72.13
2023-04-12T17:28:16.572Z,71.73
2023-04-12T17:29:20.466Z,72.11
2023-04-12T17:30:24.031Z,72.16
2023-04-12T17:31:29.367Z,72.21
2023-04-12T17:32:33.887Z,72.79
2023-04-12T17:33:37.827Z,72.31
2023-04-12T17:34:42.526Z,72.25
2023-04-12T17:35:46.591Z,72.39
2023-04-12T17:36:50.327Z,72.41
2023-04-12T17:37:53.560Z,72.38
2023-04-12T17:38:58.299Z,71.81
2023-04-12T17:40:03.948Z,72.28
2023-04-12T17:41:09.247Z,72.47
2023-04-12T17:42:13.097Z,72.01
2023-04-12T17:43:16.000Z,72.02
2023-04-12T17:44:19.242Z,71.94
2023-04-12T17:45:23.669Z,72.59
2023-04-12T17:46:27.543Z,71.98
2023-04-12T17:47:32.634Z,72.53
2023-04-12T17:48:37.102Z,72.02
2023-04-12T17:49:41.178Z,72.13
2023-04-12T17:50:45.407Z,71.98
2023-04-12T17:51:48.538Z,73.49
2023-04-12T17:52:51.979Z,72.88
2023-04-12T17:53:57.003Z,73.43
2023-04-12T17:55:00.310Z,73.48
2023-04-12T17:56:04.555Z,72.78
2023-04-12T17:57:07.841Z,72.88
2023-04-12T17:58:11.100Z,72.65
2023-04-12T17:59:14.316Z,72.96
2023-04-12T18:00:19.171Z,74.03
2023-04-12T18:01:22.330Z,73.84
2023-04-12T18:02:26.270Z,73.76
2023-04-12T18:03:29.839Z,73.64
2023-04-12T18:04:33.885Z,73.87
2023-04-12T18:05:37.416Z,74.03
2023-04-12T18:06:42.013Z,74.04
2023-04-12T18:07:45.291Z,74.23
2023-04-12T18:08:48.795Z,74.03
2023-04-12T18:09:52.380Z,73.63
2023-04-12T18:10:55.480Z,74.20
2023-04-12T18:11:58.443Z,74.25
2023-04-12T18:13:01.551Z,74.44
2023-04-12T18:14:07.383Z,74.41
2023-04-12T18:15:11.500Z,74.28
2023-04-12T18:16:14.483Z,73.75
2023-04-12T18:17:17.413Z,73.78
2023-04-12T18:18:20.494Z,74.21
2023-04-12T18:19:23.888Z,73.79
2023-04-12T18:20:27.621Z,73.92
2023-04-12T18:21:32.577Z,74.01
2023-04-12T18:22:35.599Z,73.99
2023-04-12T18:23:38.663Z,74.19
2023-04-12T18:24:42.487Z,74.24
2023-04-12T18:25:45.540Z,74.28
2023-04-12T18:26:49.847Z,74.34
2023-04-12T18:27:52.835Z,74.40
2023-04-12T18:28:56.538Z,74.40
2023-04-12T18:30:01.511Z,74.37
2023-04-12T18:31:04.659Z,74.40
2023-04-12T18:32:08.252Z,74.47
2023-04-12T18:33:11.545Z,74.39
2023-04-12T18:34:14.979Z,74.47
2023-04-12T18:35:18.281Z,74.28
2023-04-12T18:36:21.332Z,74.25
2023-04-12T18:37:24.461Z,74.27
2023-04-12T18:38:33.690Z,74.33
2023-04-12T18:39:37.082Z,74.58
2023-04-12T18:40:40.119Z,74.45
2023-04-12T18:41:43.092Z,74.48
2023-04-12T18:42:46.229Z,74.41
2023-04-12T18:43:49.182Z,74.38
2023-04-12T18:44:52.506Z,74.45
2023-04-12T18:45:56.125Z,74.31
2023-04-12T18:46:59.568Z,74.38
2023-04-12T18:48:04.448Z,74.44
2023-04-12T18:49:09.198Z,74.49
2023-04-12T18:50:12.476Z,74.48
2023-04-12T18:51:15.610Z,74.42
2023-04-12T18:52:18.528Z,74.42
2023-04-12T18:53:21.990Z,74.45
2023-04-12T18:54:27.774Z,74.44
2023-04-12T18:55:31.409Z,74.52
2023-04-12T18:56:34.694Z,74.53
2023-04-12T18:57:37.793Z,74.39
2023-04-12T18:58:54.454Z,74.37
2023-04-12T18:59:58.350Z,74.69
2023-04-12T19:01:01.723Z,74.10
2023-04-12T19:02:05.091Z,74.09
2023-04-12T19:03:08.338Z,73.99
2023-04-12T19:04:12.408Z,73.52
2023-04-12T19:05:15.777Z,73.98
2023-04-12T19:06:19.476Z,73.33
2023-04-12T19:07:22.874Z,73.47
2023-04-12T19:08:26.687Z,73.21
2023-04-12T19:09:29.656Z,73.67
2023-04-12T19:10:32.590Z,73.69
2023-04-12T19:11:37.193Z,73.41
2023-04-12T19:12:40.186Z,73.41
2023-04-12T19:13:43.238Z,73.26
2023-04-12T19:14:46.841Z,73.34